sensor_id;sensor_type;location;lat;lon;timestamp;pressure;altitude;pressure_sealevel;temperature;humidity
61740;BME280;47645;45.288;12.038;2023-06-14T00:04:06;1009.6234885776795;;;19.0255859375;90.64276861536946
61740;BME280;47645;45.288;12.038;2023-06-14T00:14:07;1009.6293856582292;;;18.9439453125;92.64924346956028
61740;BME280;47645;45.288;12.038;2023-06-14T00:24:08;1009.5166523222231;;;18.9236328125;93.68508593534378
61740;BME280;47645;45.288;12.038;2023-06-14T00:34:10;1009.30282992596;;;19.3669921875;88.2822765816558
61740;BME280;47645;45.288;12.038;2023-06-14T00:44:11;1009.373801828039;;;19.0306640625;93.72065280795243
61740;BME280;47645;45.288;12.038;2023-06-14T00:54:12;1009.2914627035632;;;19.43828125;86.1262434374323
61740;BME280;47645;45.288;12.038;2023-06-14T01:04:13;1009.195130866672;;;19.4689453125;86.3996566775386
61740;BME280;47645;45.288;12.038;2023-06-14T01:14:15;1009.174858473551;;;19.2701171875;90.42258595391205
61740;BME280;47645;45.288;12.038;2023-06-14T01:24:16;1009.1597847757902;;;19.101953125;97.47766797828095
61740;BME280;47645;45.288;12.038;2023-06-14T01:34:17;1009.123044333617;;;18.80625;100
61740;BME280;47645;45.288;12.038;2023-06-14T01:44:19;1009.1270887209821;;;18.6126953125;100
61740;BME280;47645;45.288;12.038;2023-06-14T01:54:20;1009.0681359010407;;;18.67890625;100
61740;BME280;47645;45.288;12.038;2023-06-14T02:04:20;1008.9736467256697;;;19.005078125;93.00769505229435
61740;BME280;47645;45.288;12.038;2023-06-14T02:14:22;1008.9851741565818;;;18.984765625;91.61275952010612
61740;BME280;47645;45.288;12.038;2023-06-14T02:24:24;1008.9557686030249;;;18.80625;99.4533888296362
61740;BME280;47645;45.288;12.038;2023-06-14T02:34:24;1008.9592920766953;;;18.6482421875;100
61740;BME280;47645;45.288;12.038;2023-06-14T02:44:26;1008.9574520852708;;;18.9541015625;90.04257890684873
61740;BME280;47645;45.288;12.038;2023-06-14T02:54:27;1008.8488067838681;;;19.01015625;95.0410561018226
61740;BME280;47645;45.288;12.038;2023-06-14T03:04:29;1008.8926522942595;;;18.7248046875;98.97664130011094
61740;BME280;47645;45.288;12.038;2023-06-14T03:14:30;1008.8268227179816;;;18.571875;100
61740;BME280;47645;45.288;12.038;2023-06-14T03:24:32;1008.8418516876217;;;18.5412109375;96.53343202261428
61740;BME280;47645;45.288;12.038;2023-06-14T03:34:31;1008.8663810569867;;;18.6177734375;100
61740;BME280;47645;45.288;12.038;2023-06-14T03:44:32;1008.971605539299;;;18.974609375;97.2648326802523
61740;BME280;47645;45.288;12.038;2023-06-14T03:54:34;1009.0167326090467;;;20.559765625;84.82733169727776
61740;BME280;47645;45.288;12.038;2023-06-14T04:04:36;1009.0115891415812;;;19.82578125;88.8806091841806
61740;BME280;47645;45.288;12.038;2023-06-14T04:14:36;1009.0794260595371;;;19.70859375;90.00882601784402
61740;BME280;47645;45.288;12.038;2023-06-14T04:24:37;1009.1495052217344;;;19.703515625;91.09254534448482
61740;BME280;47645;45.288;12.038;2023-06-14T04:34:40;1009.2473020549587;;;19.92265625;90.20815119357728
61740;BME280;47645;45.288;12.038;2023-06-14T04:44:41;1009.3664606525832;;;20.1162109375;83.34817323005738
61740;BME280;47645;45.288;12.038;2023-06-14T04:54:43;1009.4090665812924;;;20.258984375;87.00431951294406
61740;BME280;47645;45.288;12.038;2023-06-14T05:04:42;1009.513635169204;;;20.452734375;85.89043330859505
61740;BME280;47645;45.288;12.038;2023-06-14T05:14:43;1009.4691890854854;;;20.68203125;83.25025828387535
61740;BME280;47645;45.288;12.038;2023-06-14T05:24:44;1009.5318072487919;;;20.9216796875;82.61042628041612
61740;BME280;47645;45.288;12.038;2023-06-14T05:34:45;1009.5490413985781;;;21.3244140625;79.41445934397234
61740;BME280;47645;45.288;12.038;2023-06-14T05:44:47;1009.6405492413862;;;22.007421875;75.94009706273756
61740;BME280;47645;45.288;12.038;2023-06-14T05:54:48;1009.6751273060478;;;22.1603515625;74.00268862407462
61740;BME280;47645;45.288;12.038;2023-06-14T06:04:50;1009.8228967931291;;;22.5783203125;71.530550520903
61740;BME280;47645;45.288;12.038;2023-06-14T06:14:51;1009.8323197043464;;;22.634375;71.31684950123719
61740;BME280;47645;45.288;12.038;2023-06-14T06:24:52;1009.780705805185;;;23.16953125;69.09772852667302
61740;BME280;47645;45.288;12.038;2023-06-14T06:34:53;1009.8737758234591;;;23.1236328125;67.78922392827617
61740;BME280;47645;45.288;12.038;2023-06-14T06:44:54;1009.9051662753768;;;23.353125;66.20219377057985
61740;BME280;47645;45.288;12.038;2023-06-14T06:54:56;1009.8796733928592;;;24.0513671875;62.466625392792146
61740;BME280;47645;45.288;12.038;2023-06-14T07:04:57;1009.9988289785637;;;24.596875;59.41729323060928
61740;BME280;47645;45.288;12.038;2023-06-14T07:14:59;1010.030326999604;;;24.7396484375;60.31629225081304
61740;BME280;47645;45.288;12.038;2023-06-14T07:25:00;1009.9886914576033;;;24.82109375;59.443966917132215
61740;BME280;47645;45.288;12.038;2023-06-14T07:35:01;1010.1007414657474;;;24.795703125;57.25097979417479
61740;BME280;47645;45.288;12.038;2023-06-14T07:45:04;1010.0553744155753;;;24.5763671875;58.45922833069975
61740;BME280;47645;45.288;12.038;2023-06-14T07:55:05;1010.112151538002;;;24.60703125;59.129533550971445
61740;BME280;47645;45.288;12.038;2023-06-14T08:00:08;1010.1679138791374;;;25.0759765625;57.84474574601656
61740;BME280;47645;45.288;12.038;2023-06-14T08:10:07;1010.1540801459727;;;25.4634765625;57.85948614803337
61740;BME280;47645;45.288;12.038;2023-06-14T08:20:09;1010.1481267854052;;;25.962890625;56.69760999529367
61740;BME280;47645;45.288;12.038;2023-06-14T08:30:10;1010.2722836204263;;;26.360546875;53.374989768884255
61740;BME280;47645;45.288;12.038;2023-06-14T08:40:18;1010.3244744876262;;;26.855078125;52.26251663915301
61740;BME280;47645;45.288;12.038;2023-06-14T08:50:13;1010.2981942663515;;;27.4005859375;51.28800030463099
61740;BME280;47645;45.288;12.038;2023-06-14T09:00:15;1010.4045727823485;;;27.7470703125;47.80888752208167
61740;BME280;47645;45.288;12.038;2023-06-14T09:10:16;1010.3924449885179;;;28.39453125;44.930152146541005
61740;BME280;47645;45.288;12.038;2023-06-14T09:20:19;1010.5102568722122;;;28.3078125;44.97043866771726
61740;BME280;47645;45.288;12.038;2023-06-14T09:30:20;1010.585324143483;;;27.9255859375;47.7708480343844
61740;BME280;47645;45.288;12.038;2023-06-14T09:40:21;1010.4811095999763;;;27.7267578125;49.50872220283495
61740;BME280;47645;45.288;12.038;2023-06-14T09:50:23;1010.521072545197;;;27.5126953125;46.87996360880549
61740;BME280;47645;45.288;12.038;2023-06-14T10:00:25;1010.3856743015443;;;28.5423828125;45.88889175312678
61740;BME280;47645;45.288;12.038;2023-06-14T10:10:26;1010.3675328037681;;;29.0673828125;43.801151296797585
61740;BME280;47645;45.288;12.038;2023-06-14T10:20:30;1010.290175509283;;;29.71484375;42.52746496356993
61740;BME280;47645;45.288;12.038;2023-06-14T10:30:28;1010.3286694152011;;;29.71484375;41.888819297250556
61740;BME280;47645;45.288;12.038;2023-06-14T10:40:31;1010.220787051311;;;30.805859375;45.66983557907219
61740;BME280;47645;45.288;12.038;2023-06-14T10:50:34;1010.3053338650316;;;31.2951171875;40.46015113593324
61740;BME280;47645;45.288;12.038;2023-06-14T11:00:36;1010.1540133933154;;;31.11171875;43.5052791969675
61740;BME280;47645;45.288;12.038;2023-06-14T11:10:37;1010.1985354590604;;;32.25859375;36.440095417197085
61740;BME280;47645;45.288;12.038;2023-06-14T11:20:37;1010.0607227343025;;;32.5951171875;41.18714689017457
61740;BME280;47645;45.288;12.038;2023-06-14T11:30:41;1009.9963012514912;;;32.4166015625;41.01064746019491
61740;BME280;47645;45.288;12.038;2023-06-14T11:40:42;1009.8732039264063;;;33.1099609375;36.68948141448888
61740;BME280;47645;45.288;12.038;2023-06-14T11:50:43;1009.7424103265337;;;34.04296875;37.54289169673284
61740;BME280;47645;45.288;12.038;2023-06-14T12:00:48;1009.6913556094181;;;35.25625;38.54502124990613
61740;BME280;47645;45.288;12.038;2023-06-14T12:10:51;1009.6878642959631;;;35.368359375;38.258995561201665
61740;BME280;47645;45.288;12.038;2023-06-14T12:20:50;1009.5752616126873;;;35.9751953125;37.979574779463086
61740;BME280;47645;45.288;12.038;2023-06-14T12:30:53;1009.5811779584382;;;36.0005859375;35.093247735374234
61740;BME280;47645;45.288;12.038;2023-06-14T12:40:54;1009.518532359591;;;36.4951171875;35.52015762059056
61740;BME280;47645;45.288;12.038;2023-06-14T12:50:55;1009.5233956061453;;;36.3216796875;38.21379318748814
61740;BME280;47645;45.288;12.038;2023-06-14T13:00:57;1009.4068884531849;;;37.045703125;35.457335130609984
61740;BME280;47645;45.288;12.038;2023-06-14T13:10:59;1009.4464316462327;;;37.0814453125;35.98771362241909
61740;BME280;47645;45.288;12.038;2023-06-14T13:21:02;1009.4688173043309;;;37.045703125;36.58463020654091
61740;BME280;47645;45.288;12.038;2023-06-14T13:31:03;1009.4807582901377;;;36.571484375;37.651503385217175
61740;BME280;47645;45.288;12.038;2023-06-14T13:41:05;1009.4061891911687;;;36.7041015625;37.70956507111749
61740;BME280;47645;45.288;12.038;2023-06-14T13:51:07;1009.4007263363386;;;36.8826171875;34.625158205972305
61740;BME280;47645;45.288;12.038;2023-06-14T14:01:10;1009.263941348903;;;36.9029296875;32.76883763448281
61740;BME280;47645;45.288;12.038;2023-06-14T14:11:12;1009.2921043860708;;;37.040625;36.87712220237431
61740;BME280;47645;45.288;12.038;2023-06-14T14:21:14;1009.3867825101896;;;36.9845703125;30.832005686499475
61740;BME280;47645;45.288;12.038;2023-06-14T14:31:16;1009.3608039995645;;;36.9845703125;32.76702517357367
61740;BME280;47645;45.288;12.038;2023-06-14T14:41:18;1009.2548096261021;;;36.4748046875;36.10425686917195
61740;BME280;47645;45.288;12.038;2023-06-14T14:51:20;1009.2450961012271;;;36.0208984375;25.870747444653723
61740;BME280;47645;45.288;12.038;2023-06-14T15:01:23;1009.2629265560714;;;36.4033203125;38.516697981732676
61740;BME280;47645;45.288;12.038;2023-06-14T15:11:24;1009.3500980279507;;;36.3421875;29.48298052642929
61740;BME280;47645;45.288;12.038;2023-06-14T15:21:26;1009.4563794388371;;;35.658984375;29.318110662139784
61740;BME280;47645;45.288;12.038;2023-06-14T15:31:30;1009.3846560918059;;;35.174609375;28.451064269815717
61740;BME280;47645;45.288;12.038;2023-06-14T15:41:30;1009.325553158336;;;34.833203125;27.866827085698045
61740;BME280;47645;45.288;12.038;2023-06-14T15:51:31;1009.120324624046;;;34.4916015625;28.507841553917892
61740;BME280;47645;45.288;12.038;2023-06-14T16:01:33;1009.1841150389896;;;34.348828125;28.940081615975835
61740;BME280;47645;45.288;12.038;2023-06-14T16:11:35;1009.2163359996593;;;32.661328125;31.493251791910453
61740;BME280;47645;45.288;12.038;2023-06-14T16:21:37;1009.3779443498289;;;31.9783203125;35.287383940285196
61740;BME280;47645;45.288;12.038;2023-06-14T16:31:39;1009.4419816613623;;;31.74375;36.823529771622425
61740;BME280;47645;45.288;12.038;2023-06-14T16:41:40;1009.4750488149708;;;31.74375;37.23619019374998
61740;BME280;47645;45.288;12.038;2023-06-14T16:51:42;1009.5980112634868;;;31.6060546875;36.70151450101843
61740;BME280;47645;45.288;12.038;2023-06-14T17:01:45;1009.5625022212214;;;31.427734375;37.94043287980493
61740;BME280;47645;45.288;12.038;2023-06-14T17:11:46;1009.6769829286117;;;30.7140625;39.39251060921304
61740;BME280;47645;45.288;12.038;2023-06-14T17:21:52;1009.816950872382;;;30.5966796875;39.52240879352075
61740;BME280;47645;45.288;12.038;2023-06-14T17:31:49;1009.840245196915;;;30.137890625;39.507059678078896
61740;BME280;47645;45.288;12.038;2023-06-14T17:41:51;1009.8929112739586;;;29.796484375;41.496189650801256
61740;BME280;47645;45.288;12.038;2023-06-14T17:51:53;1009.9233822294523;;;29.52109375;42.03510619862436
61740;BME280;47645;45.288;12.038;2023-06-14T18:01:55;1010.0412273179011;;;28.6240234375;43.64691230413513
61740;BME280;47645;45.288;12.038;2023-06-14T18:11:56;1010.1193775115036;;;28.389453125;44.52145569420814
61740;BME280;47645;45.288;12.038;2023-06-14T18:21:58;1010.2305004369935;;;27.9;46.27288175764108
61740;BME280;47645;45.288;12.038;2023-06-14T18:32:00;1010.2734259743156;;;27.4412109375;48.52615403612619
61740;BME280;47645;45.288;12.038;2023-06-14T18:42:10;1010.2716621621782;;;26.9978515625;49.94857365358707
61740;BME280;47645;45.288;12.038;2023-06-14T18:52:03;1010.3875182401263;;;26.5900390625;51.33930291519084
61740;BME280;47645;45.288;12.038;2023-06-14T19:02:05;1010.5370649655032;;;26.2177734375;52.59448614041712
61740;BME280;47645;45.288;12.038;2023-06-14T19:12:07;1010.6191494978954;;;25.840625;53.68481211934674
61740;BME280;47645;45.288;12.038;2023-06-14T19:22:08;1010.8738186983114;;;25.611328125;54.63895582154677
61740;BME280;47645;45.288;12.038;2023-06-14T19:32:10;1011.0882281009751;;;25.3513671875;55.907876443329585
61740;BME280;47645;45.288;12.038;2023-06-14T19:42:13;1011.3020795250233;;;25.1474609375;56.29972227301563
61740;BME280;47645;45.288;12.038;2023-06-14T19:52:12;1011.3479599710648;;;24.902734375;57.347263954368835
61740;BME280;47645;45.288;12.038;2023-06-14T20:02:14;1011.43086301668;;;24.4388671875;59.065188138705295
61740;BME280;47645;45.288;12.038;2023-06-14T20:12:15;1011.4749032263164;;;24.494921875;58.612212831297384
61740;BME280;47645;45.288;12.038;2023-06-14T20:22:17;1011.6032114180839;;;24.387890625;59.10278209105243
61740;BME280;47645;45.288;12.038;2023-06-14T20:32:19;1011.6946718835086;;;24.209375;59.47014247560596
61740;BME280;47645;45.288;12.038;2023-06-14T20:42:20;1011.822183949975;;;23.8423828125;61.41578227332548
61740;BME280;47645;45.288;12.038;2023-06-14T20:52:21;1011.9225551610475;;;23.7099609375;61.58778248466582
61740;BME280;47645;45.288;12.038;2023-06-14T21:02:23;1012.2528940726978;;;22.9044921875;66.78511696965127
61740;BME280;47645;45.288;12.038;2023-06-14T21:12:25;1012.3125218605315;;;22.9095703125;69.49420347291974
61740;BME280;47645;45.288;12.038;2023-06-14T21:22:26;1012.339198106065;;;22.3744140625;77.68661591110299
61740;BME280;47645;45.288;12.038;2023-06-14T21:32:28;1012.4213856215974;;;22.338671875;76.8578584538222
61740;BME280;47645;45.288;12.038;2023-06-14T21:42:30;1012.572654133002;;;22.0685546875;75.49038597814814
61740;BME280;47645;45.288;12.038;2023-06-14T21:52:31;1012.6271625326472;;;21.8849609375;74.26623584376304
61740;BME280;47645;45.288;12.038;2023-06-14T22:02:33;1012.853307438204;;;21.5537109375;75.79592539519814
61740;BME280;47645;45.288;12.038;2023-06-14T22:12:34;1013.0807865885713;;;21.059375;75.51773117080165
61740;BME280;47645;45.288;12.038;2023-06-14T22:22:38;1013.0817513944272;;;20.8095703125;77.32291094641583
61740;BME280;47645;45.288;12.038;2023-06-14T22:32:37;1013.0644250169711;;;20.483203125;79.90771630283434
61740;BME280;47645;45.288;12.038;2023-06-14T22:42:44;1013.1236153907687;;;20.2640625;82.39492438723242
61740;BME280;47645;45.288;12.038;2023-06-14T22:52:40;1013.1305617143996;;;19.6421875;87.47030337560679
61740;BME280;47645;45.288;12.038;2023-06-14T23:02:41;1013.2595213539803;;;19.509765625;89.79384503877236
61740;BME280;47645;45.288;12.038;2023-06-14T23:12:42;1013.2900281153412;;;19.530078125;90.4183502314698
61740;BME280;47645;45.288;12.038;2023-06-14T23:22:44;1013.2966129311276;;;19.9990234375;87.12954538942714
61740;BME280;47645;45.288;12.038;2023-06-14T23:32:47;1013.1989148221041;;;20.141796875;84.94681834146661
61740;BME280;47645;45.288;12.038;2023-06-14T23:42:51;1013.3056092309486;;;19.92265625;85.38510390061816
61740;BME280;47645;45.288;12.038;2023-06-14T23:52:48;1013.1468283686539;;;19.9021484375;85.26775179316607
